sensor_id;sensor_type;location;lat;lon;timestamp;P1;durP1;ratioP1;P2;durP2;ratioP2
53309;SDS011;39197;53.200;5.792;2023-07-16T00:01:20;19.02;;;5.05;;
53309;SDS011;39197;53.200;5.792;2023-07-16T00:03:46;19.23;;;5.07;;
53309;SDS011;39197;53.200;5.792;2023-07-16T00:06:12;13.57;;;2.85;;
53309;SDS011;39197;53.200;5.792;2023-07-16T00:08:37;18.00;;;4.53;;
53309;SDS011;39197;53.200;5.792;2023-07-16T00:11:03;19.48;;;4.35;;
53309;SDS011;39197;53.200;5.792;2023-07-16T00:13:29;17.10;;;5.15;;
53309;SDS011;39197;53.200;5.792;2023-07-16T00:15:55;15.60;;;5.05;;
53309;SDS011;39197;53.200;5.792;2023-07-16T00:18:20;23.42;;;5.15;;
53309;SDS011;39197;53.200;5.792;2023-07-16T00:20:46;16.80;;;5.10;;
53309;SDS011;39197;53.200;5.792;2023-07-16T00:23:11;18.35;;;4.68;;
53309;SDS011;39197;53.200;5.792;2023-07-16T00:25:37;16.17;;;3.95;;
53309;SDS011;39197;53.200;5.792;2023-07-16T00:28:03;15.23;;;4.82;;
53309;SDS011;39197;53.200;5.792;2023-07-16T00:30:28;23.80;;;5.38;;
53309;SDS011;39197;53.200;5.792;2023-07-16T00:32:54;12.45;;;3.40;;
53309;SDS011;39197;53.200;5.792;2023-07-16T00:35:19;16.70;;;4.60;;
53309;SDS011;39197;53.200;5.792;2023-07-16T00:37:45;17.17;;;4.35;;
53309;SDS011;39197;53.200;5.792;2023-07-16T00:40:11;17.60;;;4.70;;
53309;SDS011;39197;53.200;5.792;2023-07-16T00:42:37;17.33;;;4.90;;
53309;SDS011;39197;53.200;5.792;2023-07-16T00:45:02;15.05;;;4.95;;
53309;SDS011;39197;53.200;5.792;2023-07-16T00:47:34;16.27;;;4.70;;
53309;SDS011;39197;53.200;5.792;2023-07-16T00:49:59;20.27;;;5.68;;
53309;SDS011;39197;53.200;5.792;2023-07-16T00:52:25;17.30;;;5.03;;
53309;SDS011;39197;53.200;5.792;2023-07-16T00:54:53;19.33;;;4.68;;
53309;SDS011;39197;53.200;5.792;2023-07-16T00:57:19;11.07;;;3.70;;
53309;SDS011;39197;53.200;5.792;2023-07-16T00:59:44;14.45;;;4.57;;
53309;SDS011;39197;53.200;5.792;2023-07-16T01:02:10;18.40;;;5.22;;
53309;SDS011;39197;53.200;5.792;2023-07-16T01:04:36;14.00;;;5.60;;
53309;SDS011;39197;53.200;5.792;2023-07-16T01:07:03;15.82;;;4.45;;
53309;SDS011;39197;53.200;5.792;2023-07-16T01:09:31;18.63;;;5.47;;
53309;SDS011;39197;53.200;5.792;2023-07-16T01:11:58;16.10;;;4.45;;
53309;SDS011;39197;53.200;5.792;2023-07-16T01:14:26;10.80;;;4.05;;
53309;SDS011;39197;53.200;5.792;2023-07-16T01:16:55;19.52;;;6.15;;
53309;SDS011;39197;53.200;5.792;2023-07-16T01:19:24;10.88;;;4.10;;
53309;SDS011;39197;53.200;5.792;2023-07-16T01:30:02;22.48;;;6.18;;
53309;SDS011;39197;53.200;5.792;2023-07-16T01:32:30;13.75;;;4.00;;
53309;SDS011;39197;53.200;5.792;2023-07-16T01:34:56;14.35;;;4.60;;
53309;SDS011;39197;53.200;5.792;2023-07-16T01:37:22;18.42;;;5.57;;
53309;SDS011;39197;53.200;5.792;2023-07-16T01:39:49;17.67;;;4.53;;
53309;SDS011;39197;53.200;5.792;2023-07-16T01:42:15;12.50;;;3.63;;
53309;SDS011;39197;53.200;5.792;2023-07-16T01:44:40;5.75;;;2.47;;
53309;SDS011;39197;53.200;5.792;2023-07-16T01:47:08;8.57;;;2.58;;
53309;SDS011;39197;53.200;5.792;2023-07-16T01:49:40;6.13;;;2.42;;
53309;SDS011;39197;53.200;5.792;2023-07-16T01:52:09;14.02;;;4.22;;
53309;SDS011;39197;53.200;5.792;2023-07-16T01:54:35;13.73;;;4.45;;
53309;SDS011;39197;53.200;5.792;2023-07-16T01:57:01;14.55;;;3.35;;
53309;SDS011;39197;53.200;5.792;2023-07-16T01:59:27;10.93;;;4.00;;
53309;SDS011;39197;53.200;5.792;2023-07-16T02:01:52;9.93;;;3.53;;
53309;SDS011;39197;53.200;5.792;2023-07-16T02:04:18;10.55;;;3.22;;
53309;SDS011;39197;53.200;5.792;2023-07-16T02:06:43;9.07;;;2.38;;
53309;SDS011;39197;53.200;5.792;2023-07-16T02:09:09;14.05;;;4.65;;
53309;SDS011;39197;53.200;5.792;2023-07-16T02:11:35;14.45;;;4.30;;
53309;SDS011;39197;53.200;5.792;2023-07-16T02:14:01;17.35;;;4.53;;
53309;SDS011;39197;53.200;5.792;2023-07-16T02:16:26;10.35;;;4.35;;
53309;SDS011;39197;53.200;5.792;2023-07-16T02:18:52;13.27;;;4.35;;
53309;SDS011;39197;53.200;5.792;2023-07-16T02:21:18;9.45;;;3.65;;
53309;SDS011;39197;53.200;5.792;2023-07-16T02:23:43;11.75;;;3.40;;
53309;SDS011;39197;53.200;5.792;2023-07-16T02:26:09;10.07;;;3.30;;
53309;SDS011;39197;53.200;5.792;2023-07-16T02:28:34;14.18;;;4.07;;
53309;SDS011;39197;53.200;5.792;2023-07-16T02:31:00;9.55;;;3.22;;
53309;SDS011;39197;53.200;5.792;2023-07-16T02:33:27;11.40;;;3.08;;
53309;SDS011;39197;53.200;5.792;2023-07-16T02:35:52;8.57;;;3.70;;
53309;SDS011;39197;53.200;5.792;2023-07-16T02:38:18;15.10;;;4.40;;
53309;SDS011;39197;53.200;5.792;2023-07-16T02:40:44;13.07;;;4.93;;
53309;SDS011;39197;53.200;5.792;2023-07-16T02:43:10;13.00;;;4.20;;
53309;SDS011;39197;53.200;5.792;2023-07-16T02:45:36;11.77;;;4.03;;
53309;SDS011;39197;53.200;5.792;2023-07-16T02:48:02;12.57;;;5.65;;
53309;SDS011;39197;53.200;5.792;2023-07-16T02:50:31;12.68;;;3.90;;
53309;SDS011;39197;53.200;5.792;2023-07-16T02:52:59;13.63;;;4.18;;
53309;SDS011;39197;53.200;5.792;2023-07-16T02:55:24;12.93;;;4.25;;
53309;SDS011;39197;53.200;5.792;2023-07-16T02:57:50;14.23;;;4.63;;
53309;SDS011;39197;53.200;5.792;2023-07-16T03:00:16;14.82;;;5.28;;
53309;SDS011;39197;53.200;5.792;2023-07-16T03:02:41;11.75;;;3.97;;
53309;SDS011;39197;53.200;5.792;2023-07-16T03:05:07;13.93;;;5.43;;
53309;SDS011;39197;53.200;5.792;2023-07-16T03:07:33;13.13;;;4.53;;
53309;SDS011;39197;53.200;5.792;2023-07-16T03:09:59;13.57;;;4.63;;
53309;SDS011;39197;53.200;5.792;2023-07-16T03:12:25;17.65;;;5.95;;
53309;SDS011;39197;53.200;5.792;2023-07-16T03:14:51;16.17;;;5.68;;
53309;SDS011;39197;53.200;5.792;2023-07-16T03:17:19;14.50;;;5.53;;
53309;SDS011;39197;53.200;5.792;2023-07-16T03:19:46;16.95;;;6.80;;
53309;SDS011;39197;53.200;5.792;2023-07-16T03:22:11;17.38;;;6.18;;
53309;SDS011;39197;53.200;5.792;2023-07-16T03:24:37;14.02;;;5.18;;
53309;SDS011;39197;53.200;5.792;2023-07-16T03:27:03;16.20;;;5.53;;
53309;SDS011;39197;53.200;5.792;2023-07-16T03:29:29;15.30;;;5.38;;
53309;SDS011;39197;53.200;5.792;2023-07-16T03:31:54;13.80;;;5.30;;
53309;SDS011;39197;53.200;5.792;2023-07-16T03:34:20;14.30;;;4.80;;
53309;SDS011;39197;53.200;5.792;2023-07-16T03:36:46;17.50;;;6.45;;
53309;SDS011;39197;53.200;5.792;2023-07-16T03:39:12;15.80;;;5.32;;
53309;SDS011;39197;53.200;5.792;2023-07-16T03:41:37;14.07;;;6.18;;
53309;SDS011;39197;53.200;5.792;2023-07-16T03:44:03;17.42;;;5.45;;
53309;SDS011;39197;53.200;5.792;2023-07-16T03:46:29;12.60;;;4.97;;
53309;SDS011;39197;53.200;5.792;2023-07-16T03:48:54;15.30;;;6.00;;
53309;SDS011;39197;53.200;5.792;2023-07-16T03:51:20;15.18;;;6.40;;
53309;SDS011;39197;53.200;5.792;2023-07-16T03:53:45;11.35;;;4.00;;
53309;SDS011;39197;53.200;5.792;2023-07-16T03:56:11;10.20;;;3.55;;
53309;SDS011;39197;53.200;5.792;2023-07-16T03:58:36;22.67;;;5.97;;
53309;SDS011;39197;53.200;5.792;2023-07-16T04:01:02;17.63;;;5.40;;
53309;SDS011;39197;53.200;5.792;2023-07-16T04:03:28;11.95;;;5.05;;
53309;SDS011;39197;53.200;5.792;2023-07-16T04:06:00;11.25;;;4.45;;
53309;SDS011;39197;53.200;5.792;2023-07-16T04:08:36;13.85;;;3.50;;
53309;SDS011;39197;53.200;5.792;2023-07-16T04:11:03;13.02;;;5.20;;
53309;SDS011;39197;53.200;5.792;2023-07-16T04:13:30;11.80;;;5.13;;
53309;SDS011;39197;53.200;5.792;2023-07-16T04:15:55;14.48;;;6.18;;
53309;SDS011;39197;53.200;5.792;2023-07-16T04:18:22;15.73;;;5.72;;
53309;SDS011;39197;53.200;5.792;2023-07-16T04:20:51;17.23;;;5.80;;
53309;SDS011;39197;53.200;5.792;2023-07-16T04:23:17;16.77;;;5.80;;
53309;SDS011;39197;53.200;5.792;2023-07-16T04:25:43;10.40;;;3.97;;
53309;SDS011;39197;53.200;5.792;2023-07-16T04:28:09;12.68;;;5.28;;
53309;SDS011;39197;53.200;5.792;2023-07-16T04:30:35;9.02;;;3.33;;
53309;SDS011;39197;53.200;5.792;2023-07-16T04:33:02;14.40;;;5.55;;
53309;SDS011;39197;53.200;5.792;2023-07-16T04:35:28;15.57;;;6.60;;
53309;SDS011;39197;53.200;5.792;2023-07-16T04:37:54;9.32;;;3.22;;
53309;SDS011;39197;53.200;5.792;2023-07-16T04:40:19;15.25;;;4.78;;
53309;SDS011;39197;53.200;5.792;2023-07-16T04:42:45;11.32;;;5.65;;
53309;SDS011;39197;53.200;5.792;2023-07-16T04:45:11;15.07;;;5.82;;
53309;SDS011;39197;53.200;5.792;2023-07-16T04:47:37;13.93;;;6.03;;
53309;SDS011;39197;53.200;5.792;2023-07-16T04:50:03;15.50;;;5.90;;
53309;SDS011;39197;53.200;5.792;2023-07-16T04:52:29;15.18;;;4.82;;
53309;SDS011;39197;53.200;5.792;2023-07-16T04:54:55;12.73;;;5.03;;
53309;SDS011;39197;53.200;5.792;2023-07-16T04:57:20;20.85;;;6.63;;
53309;SDS011;39197;53.200;5.792;2023-07-16T04:59:46;22.70;;;6.00;;
53309;SDS011;39197;53.200;5.792;2023-07-16T05:02:12;16.73;;;5.57;;
53309;SDS011;39197;53.200;5.792;2023-07-16T05:04:39;18.27;;;5.63;;
53309;SDS011;39197;53.200;5.792;2023-07-16T05:07:04;16.13;;;6.00;;
53309;SDS011;39197;53.200;5.792;2023-07-16T05:09:30;18.85;;;5.85;;
53309;SDS011;39197;53.200;5.792;2023-07-16T05:11:56;16.88;;;5.93;;
53309;SDS011;39197;53.200;5.792;2023-07-16T05:14:21;10.18;;;5.13;;
53309;SDS011;39197;53.200;5.792;2023-07-16T05:16:47;13.05;;;4.70;;
53309;SDS011;39197;53.200;5.792;2023-07-16T05:19:13;8.05;;;3.20;;
53309;SDS011;39197;53.200;5.792;2023-07-16T05:21:38;11.68;;;4.32;;
53309;SDS011;39197;53.200;5.792;2023-07-16T05:24:04;14.25;;;5.70;;
53309;SDS011;39197;53.200;5.792;2023-07-16T05:26:30;16.17;;;6.35;;
53309;SDS011;39197;53.200;5.792;2023-07-16T05:28:56;21.80;;;6.85;;
53309;SDS011;39197;53.200;5.792;2023-07-16T05:31:21;22.17;;;6.20;;
53309;SDS011;39197;53.200;5.792;2023-07-16T05:33:47;17.13;;;6.28;;
53309;SDS011;39197;53.200;5.792;2023-07-16T05:36:12;18.30;;;6.47;;
53309;SDS011;39197;53.200;5.792;2023-07-16T05:38:38;21.73;;;6.22;;
53309;SDS011;39197;53.200;5.792;2023-07-16T05:41:04;18.05;;;6.28;;
53309;SDS011;39197;53.200;5.792;2023-07-16T05:43:30;14.13;;;5.72;;
53309;SDS011;39197;53.200;5.792;2023-07-16T05:45:58;13.18;;;5.10;;
53309;SDS011;39197;53.200;5.792;2023-07-16T05:48:24;15.70;;;6.25;;
53309;SDS011;39197;53.200;5.792;2023-07-16T05:50:50;8.20;;;4.18;;
53309;SDS011;39197;53.200;5.792;2023-07-16T05:53:15;18.67;;;6.03;;
53309;SDS011;39197;53.200;5.792;2023-07-16T05:55:41;14.00;;;5.50;;
53309;SDS011;39197;53.200;5.792;2023-07-16T05:58:07;13.48;;;4.88;;
53309;SDS011;39197;53.200;5.792;2023-07-16T06:00:34;15.45;;;4.43;;
53309;SDS011;39197;53.200;5.792;2023-07-16T06:03:02;15.27;;;5.13;;
53309;SDS011;39197;53.200;5.792;2023-07-16T06:05:28;13.23;;;4.50;;
53309;SDS011;39197;53.200;5.792;2023-07-16T06:07:57;12.45;;;3.72;;
53309;SDS011;39197;53.200;5.792;2023-07-16T06:10:23;12.63;;;4.75;;
53309;SDS011;39197;53.200;5.792;2023-07-16T06:12:49;14.90;;;4.85;;
53309;SDS011;39197;53.200;5.792;2023-07-16T06:15:14;13.52;;;4.38;;
53309;SDS011;39197;53.200;5.792;2023-07-16T06:17:40;11.68;;;3.03;;
53309;SDS011;39197;53.200;5.792;2023-07-16T06:20:06;13.70;;;4.80;;
53309;SDS011;39197;53.200;5.792;2023-07-16T06:22:33;12.15;;;3.55;;
53309;SDS011;39197;53.200;5.792;2023-07-16T06:24:58;12.52;;;5.32;;
53309;SDS011;39197;53.200;5.792;2023-07-16T06:27:24;11.65;;;4.20;;
53309;SDS011;39197;53.200;5.792;2023-07-16T06:29:50;9.90;;;3.60;;
53309;SDS011;39197;53.200;5.792;2023-07-16T06:32:16;11.57;;;5.43;;
53309;SDS011;39197;53.200;5.792;2023-07-16T06:34:41;10.98;;;4.68;;
53309;SDS011;39197;53.200;5.792;2023-07-16T06:37:07;13.15;;;5.28;;
53309;SDS011;39197;53.200;5.792;2023-07-16T06:39:33;14.80;;;5.68;;
53309;SDS011;39197;53.200;5.792;2023-07-16T06:41:58;14.90;;;6.13;;
53309;SDS011;39197;53.200;5.792;2023-07-16T06:44:24;17.25;;;6.05;;
53309;SDS011;39197;53.200;5.792;2023-07-16T06:46:50;10.43;;;4.45;;
53309;SDS011;39197;53.200;5.792;2023-07-16T06:49:15;11.45;;;3.78;;
53309;SDS011;39197;53.200;5.792;2023-07-16T06:51:41;13.95;;;5.00;;
53309;SDS011;39197;53.200;5.792;2023-07-16T06:54:07;12.57;;;4.80;;
53309;SDS011;39197;53.200;5.792;2023-07-16T06:56:33;13.93;;;5.57;;
53309;SDS011;39197;53.200;5.792;2023-07-16T06:58:58;9.55;;;3.65;;
53309;SDS011;39197;53.200;5.792;2023-07-16T07:01:24;14.95;;;5.55;;
53309;SDS011;39197;53.200;5.792;2023-07-16T07:03:52;15.27;;;4.18;;
53309;SDS011;39197;53.200;5.792;2023-07-16T07:06:19;5.00;;;1.67;;
53309;SDS011;39197;53.200;5.792;2023-07-16T07:08:46;17.05;;;5.78;;
53309;SDS011;39197;53.200;5.792;2023-07-16T07:11:12;16.73;;;4.60;;
53309;SDS011;39197;53.200;5.792;2023-07-16T07:13:37;12.90;;;4.47;;
53309;SDS011;39197;53.200;5.792;2023-07-16T07:16:03;12.40;;;4.45;;
53309;SDS011;39197;53.200;5.792;2023-07-16T07:18:29;11.80;;;4.45;;
53309;SDS011;39197;53.200;5.792;2023-07-16T07:20:54;15.82;;;4.70;;
53309;SDS011;39197;53.200;5.792;2023-07-16T07:23:20;15.90;;;4.80;;
53309;SDS011;39197;53.200;5.792;2023-07-16T07:25:49;18.73;;;5.30;;
53309;SDS011;39197;53.200;5.792;2023-07-16T07:28:19;12.75;;;5.28;;
53309;SDS011;39197;53.200;5.792;2023-07-16T07:30:45;14.20;;;4.53;;
53309;SDS011;39197;53.200;5.792;2023-07-16T07:33:11;12.85;;;5.35;;
53309;SDS011;39197;53.200;5.792;2023-07-16T07:35:37;18.17;;;5.82;;
53309;SDS011;39197;53.200;5.792;2023-07-16T07:38:02;14.40;;;5.25;;
53309;SDS011;39197;53.200;5.792;2023-07-16T07:40:28;9.18;;;4.25;;
53309;SDS011;39197;53.200;5.792;2023-07-16T07:42:53;19.10;;;4.43;;
53309;SDS011;39197;53.200;5.792;2023-07-16T07:45:19;13.20;;;4.85;;
53309;SDS011;39197;53.200;5.792;2023-07-16T07:47:45;12.13;;;4.32;;
53309;SDS011;39197;53.200;5.792;2023-07-16T07:50:10;12.35;;;3.92;;
53309;SDS011;39197;53.200;5.792;2023-07-16T07:52:36;14.80;;;4.85;;
53309;SDS011;39197;53.200;5.792;2023-07-16T07:55:02;7.72;;;2.17;;
53309;SDS011;39197;53.200;5.792;2023-07-16T07:57:29;16.52;;;4.20;;
53309;SDS011;39197;53.200;5.792;2023-07-16T07:59:54;9.77;;;3.60;;
53309;SDS011;39197;53.200;5.792;2023-07-16T08:02:22;13.35;;;4.38;;
53309;SDS011;39197;53.200;5.792;2023-07-16T08:04:54;14.27;;;4.70;;
53309;SDS011;39197;53.200;5.792;2023-07-16T08:07:21;11.73;;;4.72;;
53309;SDS011;39197;53.200;5.792;2023-07-16T08:09:47;7.97;;;2.33;;
53309;SDS011;39197;53.200;5.792;2023-07-16T08:12:13;12.35;;;4.30;;
53309;SDS011;39197;53.200;5.792;2023-07-16T08:14:39;13.95;;;4.07;;
53309;SDS011;39197;53.200;5.792;2023-07-16T08:17:06;14.35;;;4.88;;
53309;SDS011;39197;53.200;5.792;2023-07-16T08:19:33;13.57;;;5.95;;
53309;SDS011;39197;53.200;5.792;2023-07-16T08:21:58;5.95;;;2.65;;
53309;SDS011;39197;53.200;5.792;2023-07-16T08:24:24;13.32;;;4.50;;
53309;SDS011;39197;53.200;5.792;2023-07-16T08:26:50;13.43;;;4.63;;
53309;SDS011;39197;53.200;5.792;2023-07-16T08:29:16;6.60;;;2.63;;
53309;SDS011;39197;53.200;5.792;2023-07-16T08:31:42;10.00;;;3.60;;
53309;SDS011;39197;53.200;5.792;2023-07-16T08:34:07;15.52;;;5.00;;
53309;SDS011;39197;53.200;5.792;2023-07-16T08:36:33;19.40;;;5.15;;
53309;SDS011;39197;53.200;5.792;2023-07-16T08:38:59;10.95;;;4.43;;
53309;SDS011;39197;53.200;5.792;2023-07-16T08:41:25;6.05;;;2.38;;
53309;SDS011;39197;53.200;5.792;2023-07-16T08:43:51;8.77;;;3.10;;
53309;SDS011;39197;53.200;5.792;2023-07-16T08:46:17;14.63;;;4.38;;
53309;SDS011;39197;53.200;5.792;2023-07-16T08:48:42;15.52;;;4.13;;
53309;SDS011;39197;53.200;5.792;2023-07-16T08:51:10;13.38;;;4.25;;
53309;SDS011;39197;53.200;5.792;2023-07-16T08:53:39;13.05;;;3.53;;
53309;SDS011;39197;53.200;5.792;2023-07-16T08:56:04;12.27;;;3.38;;
53309;SDS011;39197;53.200;5.792;2023-07-16T08:58:30;14.15;;;4.00;;
53309;SDS011;39197;53.200;5.792;2023-07-16T09:00:56;11.43;;;2.70;;
53309;SDS011;39197;53.200;5.792;2023-07-16T09:03:23;13.85;;;4.88;;
53309;SDS011;39197;53.200;5.792;2023-07-16T09:05:48;17.27;;;5.88;;
53309;SDS011;39197;53.200;5.792;2023-07-16T09:08:14;13.50;;;5.18;;
53309;SDS011;39197;53.200;5.792;2023-07-16T09:10:40;15.55;;;3.88;;
53309;SDS011;39197;53.200;5.792;2023-07-16T09:13:06;11.02;;;3.55;;
53309;SDS011;39197;53.200;5.792;2023-07-16T09:15:32;11.55;;;4.00;;
53309;SDS011;39197;53.200;5.792;2023-07-16T09:17:59;13.25;;;4.15;;
53309;SDS011;39197;53.200;5.792;2023-07-16T09:20:26;14.82;;;5.05;;
53309;SDS011;39197;53.200;5.792;2023-07-16T09:25:29;13.43;;;4.63;;
53309;SDS011;39197;53.200;5.792;2023-07-16T09:30:23;7.45;;;2.30;;
53309;SDS011;39197;53.200;5.792;2023-07-16T09:32:48;17.70;;;5.30;;
53309;SDS011;39197;53.200;5.792;2023-07-16T09:35:14;10.80;;;3.72;;
53309;SDS011;39197;53.200;5.792;2023-07-16T09:37:41;10.55;;;4.57;;
53309;SDS011;39197;53.200;5.792;2023-07-16T09:40:08;12.55;;;4.32;;
53309;SDS011;39197;53.200;5.792;2023-07-16T09:42:39;15.05;;;6.03;;
53309;SDS011;39197;53.200;5.792;2023-07-16T09:45:16;6.35;;;2.85;;
53309;SDS011;39197;53.200;5.792;2023-07-16T09:47:43;16.10;;;4.45;;
53309;SDS011;39197;53.200;5.792;2023-07-16T09:50:10;14.38;;;4.65;;
53309;SDS011;39197;53.200;5.792;2023-07-16T09:52:36;16.10;;;4.78;;
53309;SDS011;39197;53.200;5.792;2023-07-16T09:55:03;9.05;;;3.33;;
53309;SDS011;39197;53.200;5.792;2023-07-16T09:57:34;8.07;;;2.20;;
53309;SDS011;39197;53.200;5.792;2023-07-16T10:00:03;12.65;;;4.18;;
53309;SDS011;39197;53.200;5.792;2023-07-16T10:02:34;4.60;;;1.58;;
53309;SDS011;39197;53.200;5.792;2023-07-16T10:05:11;11.60;;;3.67;;
53309;SDS011;39197;53.200;5.792;2023-07-16T10:07:55;13.68;;;3.42;;
53309;SDS011;39197;53.200;5.792;2023-07-16T10:10:38;12.98;;;3.67;;
53309;SDS011;39197;53.200;5.792;2023-07-16T10:13:06;14.25;;;3.28;;
53309;SDS011;39197;53.200;5.792;2023-07-16T10:15:32;10.38;;;3.40;;
53309;SDS011;39197;53.200;5.792;2023-07-16T10:17:58;14.15;;;3.65;;
53309;SDS011;39197;53.200;5.792;2023-07-16T10:20:30;11.68;;;2.83;;
53309;SDS011;39197;53.200;5.792;2023-07-16T10:25:38;13.52;;;3.30;;
53309;SDS011;39197;53.200;5.792;2023-07-16T10:28:04;15.80;;;4.60;;
53309;SDS011;39197;53.200;5.792;2023-07-16T10:30:30;15.63;;;3.80;;
53309;SDS011;39197;53.200;5.792;2023-07-16T10:32:57;16.38;;;4.70;;
53309;SDS011;39197;53.200;5.792;2023-07-16T10:35:25;11.77;;;3.85;;
53309;SDS011;39197;53.200;5.792;2023-07-16T10:37:51;19.52;;;6.10;;
53309;SDS011;39197;53.200;5.792;2023-07-16T10:40:16;14.82;;;5.07;;
53309;SDS011;39197;53.200;5.792;2023-07-16T10:42:43;12.48;;;3.15;;
53309;SDS011;39197;53.200;5.792;2023-07-16T10:45:11;9.77;;;2.10;;
53309;SDS011;39197;53.200;5.792;2023-07-16T10:47:38;10.27;;;3.28;;
53309;SDS011;39197;53.200;5.792;2023-07-16T10:50:06;11.07;;;3.53;;
53309;SDS011;39197;53.200;5.792;2023-07-16T10:52:34;10.10;;;3.15;;
53309;SDS011;39197;53.200;5.792;2023-07-16T10:55:01;15.82;;;3.28;;
53309;SDS011;39197;53.200;5.792;2023-07-16T10:57:28;8.95;;;2.13;;
53309;SDS011;39197;53.200;5.792;2023-07-16T10:59:55;12.25;;;2.78;;
53309;SDS011;39197;53.200;5.792;2023-07-16T11:02:23;8.55;;;3.42;;
53309;SDS011;39197;53.200;5.792;2023-07-16T11:04:50;19.08;;;4.60;;
53309;SDS011;39197;53.200;5.792;2023-07-16T11:07:20;11.30;;;3.50;;
53309;SDS011;39197;53.200;5.792;2023-07-16T11:09:51;16.33;;;4.32;;
53309;SDS011;39197;53.200;5.792;2023-07-16T11:12:19;9.80;;;2.67;;
53309;SDS011;39197;53.200;5.792;2023-07-16T11:14:47;13.82;;;4.38;;
53309;SDS011;39197;53.200;5.792;2023-07-16T11:17:16;11.20;;;2.90;;
53309;SDS011;39197;53.200;5.792;2023-07-16T11:19:47;12.50;;;2.90;;
53309;SDS011;39197;53.200;5.792;2023-07-16T11:22:15;6.10;;;1.50;;
53309;SDS011;39197;53.200;5.792;2023-07-16T11:24:47;5.38;;;1.30;;
53309;SDS011;39197;53.200;5.792;2023-07-16T11:27:15;7.50;;;1.98;;
53309;SDS011;39197;53.200;5.792;2023-07-16T11:29:48;11.57;;;2.45;;
53309;SDS011;39197;53.200;5.792;2023-07-16T11:32:33;7.55;;;1.90;;
53309;SDS011;39197;53.200;5.792;2023-07-16T11:35:03;11.27;;;2.60;;
53309;SDS011;39197;53.200;5.792;2023-07-16T11:37:31;11.30;;;2.15;;
53309;SDS011;39197;53.200;5.792;2023-07-16T11:39:59;9.73;;;1.65;;
53309;SDS011;39197;53.200;5.792;2023-07-16T11:42:28;9.30;;;1.48;;
53309;SDS011;39197;53.200;5.792;2023-07-16T11:44:55;9.60;;;2.25;;
53309;SDS011;39197;53.200;5.792;2023-07-16T11:47:22;13.45;;;1.80;;
53309;SDS011;39197;53.200;5.792;2023-07-16T11:49:48;10.23;;;1.92;;
53309;SDS011;39197;53.200;5.792;2023-07-16T11:52:14;7.53;;;1.23;;
53309;SDS011;39197;53.200;5.792;2023-07-16T11:54:53;10.02;;;1.65;;
53309;SDS011;39197;53.200;5.792;2023-07-16T11:57:21;12.63;;;1.83;;
53309;SDS011;39197;53.200;5.792;2023-07-16T11:59:47;12.90;;;2.45;;
53309;SDS011;39197;53.200;5.792;2023-07-16T12:02:13;8.23;;;1.98;;
53309;SDS011;39197;53.200;5.792;2023-07-16T12:04:40;12.90;;;2.15;;
53309;SDS011;39197;53.200;5.792;2023-07-16T12:07:07;16.20;;;3.30;;
53309;SDS011;39197;53.200;5.792;2023-07-16T12:09:33;10.98;;;2.25;;
53309;SDS011;39197;53.200;5.792;2023-07-16T12:11:59;15.35;;;3.45;;
53309;SDS011;39197;53.200;5.792;2023-07-16T12:14:26;15.38;;;3.00;;
53309;SDS011;39197;53.200;5.792;2023-07-16T12:16:52;12.38;;;2.92;;
53309;SDS011;39197;53.200;5.792;2023-07-16T12:19:18;15.23;;;3.40;;
53309;SDS011;39197;53.200;5.792;2023-07-16T12:21:43;12.60;;;2.45;;
53309;SDS011;39197;53.200;5.792;2023-07-16T12:24:09;26.52;;;5.50;;
53309;SDS011;39197;53.200;5.792;2023-07-16T12:26:36;16.95;;;3.05;;
53309;SDS011;39197;53.200;5.792;2023-07-16T12:29:02;16.90;;;4.07;;
53309;SDS011;39197;53.200;5.792;2023-07-16T12:31:29;15.00;;;2.90;;
53309;SDS011;39197;53.200;5.792;2023-07-16T12:33:58;5.15;;;1.13;;
53309;SDS011;39197;53.200;5.792;2023-07-16T12:36:26;16.38;;;3.55;;
53309;SDS011;39197;53.200;5.792;2023-07-16T12:38:52;13.70;;;2.72;;
53309;SDS011;39197;53.200;5.792;2023-07-16T12:41:18;21.45;;;3.53;;
53309;SDS011;39197;53.200;5.792;2023-07-16T12:43:46;19.95;;;3.85;;
53309;SDS011;39197;53.200;5.792;2023-07-16T12:46:12;11.73;;;2.10;;
53309;SDS011;39197;53.200;5.792;2023-07-16T12:48:38;11.38;;;2.47;;
53309;SDS011;39197;53.200;5.792;2023-07-16T12:51:04;18.48;;;3.25;;
53309;SDS011;39197;53.200;5.792;2023-07-16T12:53:29;13.43;;;2.85;;
53309;SDS011;39197;53.200;5.792;2023-07-16T12:55:55;17.83;;;2.97;;
53309;SDS011;39197;53.200;5.792;2023-07-16T12:58:21;11.85;;;1.92;;
53309;SDS011;39197;53.200;5.792;2023-07-16T13:00:47;15.07;;;2.80;;
53309;SDS011;39197;53.200;5.792;2023-07-16T13:03:13;16.90;;;3.28;;
53309;SDS011;39197;53.200;5.792;2023-07-16T13:05:44;7.88;;;1.52;;
53309;SDS011;39197;53.200;5.792;2023-07-16T13:08:10;14.57;;;2.65;;
53309;SDS011;39197;53.200;5.792;2023-07-16T13:10:36;15.07;;;3.15;;
53309;SDS011;39197;53.200;5.792;2023-07-16T13:13:03;9.98;;;2.30;;
53309;SDS011;39197;53.200;5.792;2023-07-16T13:15:29;12.40;;;2.92;;
53309;SDS011;39197;53.200;5.792;2023-07-16T13:17:58;17.80;;;3.20;;
53309;SDS011;39197;53.200;5.792;2023-07-16T13:20:24;14.88;;;3.00;;
53309;SDS011;39197;53.200;5.792;2023-07-16T13:22:50;15.25;;;3.22;;
53309;SDS011;39197;53.200;5.792;2023-07-16T13:25:19;11.30;;;1.88;;
53309;SDS011;39197;53.200;5.792;2023-07-16T13:27:45;14.90;;;2.63;;
53309;SDS011;39197;53.200;5.792;2023-07-16T13:30:11;9.20;;;1.95;;
53309;SDS011;39197;53.200;5.792;2023-07-16T13:32:38;11.60;;;3.13;;
53309;SDS011;39197;53.200;5.792;2023-07-16T13:35:04;17.13;;;3.15;;
53309;SDS011;39197;53.200;5.792;2023-07-16T13:37:30;15.90;;;3.70;;
53309;SDS011;39197;53.200;5.792;2023-07-16T13:39:56;15.73;;;2.65;;
53309;SDS011;39197;53.200;5.792;2023-07-16T13:42:22;15.68;;;2.58;;
53309;SDS011;39197;53.200;5.792;2023-07-16T13:44:47;15.05;;;2.33;;
53309;SDS011;39197;53.200;5.792;2023-07-16T13:47:13;18.55;;;3.80;;
53309;SDS011;39197;53.200;5.792;2023-07-16T13:49:39;15.32;;;2.10;;
53309;SDS011;39197;53.200;5.792;2023-07-16T13:52:05;19.17;;;2.38;;
53309;SDS011;39197;53.200;5.792;2023-07-16T13:54:34;8.98;;;1.77;;
53309;SDS011;39197;53.200;5.792;2023-07-16T13:56:59;18.83;;;3.78;;
53309;SDS011;39197;53.200;5.792;2023-07-16T13:59:25;12.02;;;2.63;;
53309;SDS011;39197;53.200;5.792;2023-07-16T14:01:58;19.05;;;3.05;;
53309;SDS011;39197;53.200;5.792;2023-07-16T14:04:28;15.93;;;3.08;;
53309;SDS011;39197;53.200;5.792;2023-07-16T14:06:54;23.25;;;3.08;;
53309;SDS011;39197;53.200;5.792;2023-07-16T14:09:21;8.20;;;1.50;;
53309;SDS011;39197;53.200;5.792;2023-07-16T14:11:47;16.70;;;1.85;;
53309;SDS011;39197;53.200;5.792;2023-07-16T14:14:14;13.80;;;1.95;;
53309;SDS011;39197;53.200;5.792;2023-07-16T14:16:41;9.13;;;2.03;;
53309;SDS011;39197;53.200;5.792;2023-07-16T14:19:08;6.60;;;1.10;;
53309;SDS011;39197;53.200;5.792;2023-07-16T14:21:34;10.15;;;1.52;;
53309;SDS011;39197;53.200;5.792;2023-07-16T14:24:00;12.40;;;1.92;;
53309;SDS011;39197;53.200;5.792;2023-07-16T14:26:26;12.32;;;1.95;;
53309;SDS011;39197;53.200;5.792;2023-07-16T14:28:51;12.70;;;1.65;;
53309;SDS011;39197;53.200;5.792;2023-07-16T14:31:17;13.45;;;2.03;;
53309;SDS011;39197;53.200;5.792;2023-07-16T14:33:44;11.70;;;1.70;;
53309;SDS011;39197;53.200;5.792;2023-07-16T14:36:09;16.52;;;2.42;;
53309;SDS011;39197;53.200;5.792;2023-07-16T14:38:35;10.45;;;2.20;;
53309;SDS011;39197;53.200;5.792;2023-07-16T14:41:01;9.43;;;1.52;;
53309;SDS011;39197;53.200;5.792;2023-07-16T14:43:28;10.48;;;1.77;;
53309;SDS011;39197;53.200;5.792;2023-07-16T14:45:53;7.75;;;1.00;;
53309;SDS011;39197;53.200;5.792;2023-07-16T14:48:19;13.30;;;2.20;;